Time;durP1;ratioP1;P1;durP2;ratioP2;P2;SDS_P1;SDS_P2;PMS_P1;PMS_P2;Temp;Humidity;BMP_temperature;BMP_pressure;BME280_temperature;BME280_humidity;BME280_pressure;Samples;Min_cycle;Max_cycle;Signal;HPM_P1;HPM_P2
2022/10/21 00:01:41;;;;;;;9.07;6.77;;;;;;;;;;5080765;28;20324;-43
2022/10/21 00:04:15;;;;;;;10.80;7.40;;;;;;;;;;5082035;28;20207;-38
2022/10/21 00:06:46;;;;;;;10.90;7.03;;;;;;;;;;5095644;28;20212;-35
2022/10/21 00:09:18;;;;;;;8.40;6.03;;;;;;;;;;5094472;28;20243;-36
2022/10/21 00:11:48;;;;;;;9.60;6.70;;;;;;;;;;5088675;28;20260;-36
2022/10/21 00:14:20;;;;;;;11.87;6.60;;;;;;;;;;5093433;28;20208;-37
2022/10/21 00:16:53;;;;;;;9.57;7.03;;;;;;;;;;5094712;28;20208;-36
2022/10/21 00:19:32;;;;;;;8.97;6.67;;;;;;;;;;5086597;28;20212;-38
2022/10/21 00:22:04;;;;;;;11.83;6.30;;;;;;;;;;5094533;28;20208;-43
2022/10/21 00:24:33;;;;;;;13.00;7.07;;;;;;;;;;5094817;28;20201;-37
2022/10/21 00:27:12;;;;;;;12.00;7.60;;;;;;;;;;5092575;28;20239;-36
2022/10/21 00:29:42;;;;;;;8.57;6.73;;;;;;;;;;5091429;28;20216;-39
2022/10/21 00:32:18;;;;;;;14.10;6.57;;;;;;;;;;5095184;28;20200;-39
2022/10/21 00:34:48;;;;;;;12.87;7.20;;;;;;;;;;5088948;28;20255;-39
2022/10/21 00:37:20;;;;;;;11.87;7.30;;;;;;;;;;5094522;28;20201;-36
2022/10/21 00:39:53;;;;;;;10.83;6.33;;;;;;;;;;5094518;28;20319;-37
2022/10/21 00:42:23;;;;;;;16.97;7.50;;;;;;;;;;5092002;28;20281;-36
2022/10/21 00:45:16;;;;;;;11.63;7.13;;;;;;;;;;5094681;28;20212;-38
2022/10/21 00:47:49;;;;;;;9.93;6.10;;;;;;;;;;5092378;28;20295;-41
2022/10/21 00:50:24;;;;;;;8.57;6.10;;;;;;;;;;5081332;28;20217;-40
2022/10/21 00:52:57;;;;;;;9.83;6.27;;;;;;;;;;5093429;28;20197;-36
2022/10/21 00:55:31;;;;;;;14.33;6.30;;;;;;;;;;5093799;28;20231;-36
2022/10/21 00:58:07;;;;;;;10.17;6.10;;;;;;;;;;5084584;28;20205;-36
2022/10/21 01:00:37;;;;;;;12.43;6.50;;;;;;;;;;5079341;28;20224;-36
2022/10/21 01:03:15;;;;;;;8.70;5.80;;;;;;;;;;5083627;28;20205;-41
2022/10/21 01:05:49;;;;;;;9.63;6.63;;;;;;;;;;5085039;28;20244;-39
2022/10/21 01:08:19;;;;;;;8.60;6.07;;;;;;;;;;5094167;28;20207;-42
2022/10/21 01:10:54;;;;;;;12.07;6.90;;;;;;;;;;5089689;28;20226;-38
2022/10/21 01:13:27;;;;;;;12.87;6.27;;;;;;;;;;5089133;28;20217;-42
2022/10/21 01:16:09;;;;;;;10.63;5.40;;;;;;;;;;5093228;28;20209;-38
2022/10/21 01:18:47;;;;;;;9.53;5.40;;;;;;;;;;5090098;28;20210;-35
2022/10/21 01:21:32;;;;;;;8.80;6.30;;;;;;;;;;5087351;28;20229;-37
2022/10/21 01:29:52;;;;;;;9.40;5.67;;;;;;;;;;5084346;22;20247;-31
2022/10/21 01:32:36;;;;;;;9.63;5.60;;;;;;;;;;5054246;28;20241;-34
2022/10/21 01:35:17;;;;;;;15.07;6.07;;;;;;;;;;5065459;28;20209;-32
2022/10/21 01:37:55;;;;;;;17.83;6.60;;;;;;;;;;5091056;28;20289;-32
2022/10/21 01:40:32;;;;;;;12.63;5.93;;;;;;;;;;5073551;28;20231;-31
2022/10/21 01:43:05;;;;;;;7.63;5.30;;;;;;;;;;5062422;28;20224;-30
2022/10/21 01:45:44;;;;;;;10.83;5.87;;;;;;;;;;5085595;28;20226;-33
2022/10/21 01:48:20;;;;;;;14.63;6.30;;;;;;;;;;5054570;28;20206;-30
2022/10/21 01:56:16;;;;;;;8.93;5.80;;;;;;;;;;5043486;28;20225;-39
2022/10/21 01:58:52;;;;;;;7.03;4.63;;;;;;;;;;5045881;28;20209;-38
2022/10/21 02:01:26;;;;;;;13.73;5.50;;;;;;;;;;5068934;28;20236;-38
2022/10/21 02:04:05;;;;;;;11.10;5.97;;;;;;;;;;5065769;28;20288;-37
2022/10/21 02:06:40;;;;;;;9.93;5.80;;;;;;;;;;5060950;28;20211;-39
2022/10/21 02:09:12;;;;;;;12.63;5.27;;;;;;;;;;5052801;28;20308;-39
2022/10/21 02:11:51;;;;;;;8.90;5.37;;;;;;;;;;5084275;28;20296;-39
2022/10/21 02:14:27;;;;;;;10.80;5.13;;;;;;;;;;5067204;28;20209;-41
2022/10/21 02:17:03;;;;;;;7.53;4.77;;;;;;;;;;5060879;28;20206;-39
2022/10/21 02:19:32;;;;;;;10.47;4.90;;;;;;;;;;5057240;28;20204;-43
2022/10/21 02:22:01;;;;;;;14.13;4.93;;;;;;;;;;5066939;28;20229;-40
2022/10/21 02:24:35;;;;;;;12.47;4.87;;;;;;;;;;5052102;28;20282;-32
2022/10/21 02:27:03;;;;;;;6.50;4.47;;;;;;;;;;5055326;28;20212;-36
2022/10/21 02:29:32;;;;;;;7.83;5.00;;;;;;;;;;5059758;28;20199;-42
2022/10/21 02:32:14;;;;;;;8.30;5.20;;;;;;;;;;5068527;28;20328;-37
2022/10/21 02:34:49;;;;;;;8.23;5.03;;;;;;;;;;5051978;28;20228;-37
2022/10/21 02:37:19;;;;;;;11.73;4.73;;;;;;;;;;5067008;28;20204;-36
2022/10/21 02:39:48;;;;;;;6.53;4.13;;;;;;;;;;5071725;28;20262;-35
2022/10/21 02:42:20;;;;;;;7.50;6.07;;;;;;;;;;5068691;28;20190;-35
2022/10/21 02:44:47;;;;;;;7.40;5.00;;;;;;;;;;5065069;28;20206;-39
2022/10/21 02:47:16;;;;;;;8.67;4.93;;;;;;;;;;5063618;28;20234;-40
2022/10/21 02:49:46;;;;;;;6.73;4.93;;;;;;;;;;5063509;28;20197;-42
2022/10/21 02:52:14;;;;;;;8.63;5.10;;;;;;;;;;5066246;28;20201;-37
2022/10/21 02:54:41;;;;;;;7.07;4.63;;;;;;;;;;5075011;28;20209;-36
2022/10/21 02:57:08;;;;;;;9.57;5.03;;;;;;;;;;5066917;28;20285;-40
2022/10/21 02:59:35;;;;;;;9.60;4.43;;;;;;;;;;5069105;28;20291;-40
2022/10/21 03:02:03;;;;;;;8.93;4.73;;;;;;;;;;5066750;28;20251;-34
2022/10/21 03:04:34;;;;;;;7.73;5.00;;;;;;;;;;5065439;28;20332;-42
2022/10/21 03:07:03;;;;;;;13.67;5.13;;;;;;;;;;5054179;28;20207;-39
2022/10/21 03:09:31;;;;;;;7.00;5.00;;;;;;;;;;5067684;28;20309;-35
2022/10/21 03:11:59;;;;;;;7.40;4.90;;;;;;;;;;5068885;28;20235;-38
2022/10/21 03:14:30;;;;;;;8.97;5.03;;;;;;;;;;5064923;28;20207;-39
2022/10/21 03:16:58;;;;;;;5.20;3.83;;;;;;;;;;5074980;28;20209;-37
2022/10/21 03:19:28;;;;;;;5.03;4.27;;;;;;;;;;5070034;28;20307;-35
2022/10/21 03:21:59;;;;;;;8.43;5.63;;;;;;;;;;5065900;28;20229;-37
2022/10/21 03:24:31;;;;;;;9.63;5.20;;;;;;;;;;5076182;28;20211;-44
2022/10/21 03:27:00;;;;;;;15.87;5.23;;;;;;;;;;5072315;28;20208;-35
2022/10/21 03:29:27;;;;;;;13.37;4.50;;;;;;;;;;5064701;28;20293;-41
2022/10/21 03:31:55;;;;;;;11.90;5.70;;;;;;;;;;5055028;28;20226;-40
2022/10/21 03:34:22;;;;;;;7.40;4.40;;;;;;;;;;5064322;28;20211;-39
2022/10/21 03:36:50;;;;;;;5.07;4.40;;;;;;;;;;5072544;28;20249;-38
2022/10/21 03:39:17;;;;;;;6.70;4.90;;;;;;;;;;5073170;28;20203;-42
2022/10/21 03:41:45;;;;;;;6.17;4.57;;;;;;;;;;5065795;28;20273;-40
2022/10/21 03:44:13;;;;;;;8.83;5.00;;;;;;;;;;5064851;28;20243;-37
2022/10/21 03:46:40;;;;;;;5.23;4.40;;;;;;;;;;5062356;28;20216;-42
2022/10/21 03:49:07;;;;;;;11.67;5.67;;;;;;;;;;5056722;28;20194;-36
2022/10/21 03:51:35;;;;;;;6.83;5.10;;;;;;;;;;5072547;28;20216;-34
2022/10/21 03:54:02;;;;;;;5.53;4.27;;;;;;;;;;5072749;28;20197;-41
2022/10/21 03:56:29;;;;;;;6.97;5.50;;;;;;;;;;5067572;28;20214;-36
2022/10/21 03:58:58;;;;;;;6.17;4.63;;;;;;;;;;5053100;28;20214;-40
2022/10/21 04:01:26;;;;;;;7.23;4.50;;;;;;;;;;5060965;28;20233;-41
2022/10/21 04:03:54;;;;;;;7.37;5.00;;;;;;;;;;5067711;28;20237;-39
2022/10/21 04:06:21;;;;;;;8.50;5.00;;;;;;;;;;5066812;28;20225;-44
2022/10/21 04:08:48;;;;;;;8.90;4.83;;;;;;;;;;5055055;28;20202;-37
2022/10/21 04:11:16;;;;;;;7.20;4.53;;;;;;;;;;5065876;28;20225;-37
2022/10/21 04:13:45;;;;;;;7.10;6.20;;;;;;;;;;5065343;28;20212;-41
2022/10/21 04:16:15;;;;;;;8.77;7.57;;;;;;;;;;5064988;28;20201;-42
2022/10/21 04:18:44;;;;;;;10.33;7.50;;;;;;;;;;5066032;28;20212;-42
2022/10/21 04:21:22;;;;;;;10.60;5.43;;;;;;;;;;5060324;28;20239;-41
2022/10/21 04:23:51;;;;;;;10.03;5.97;;;;;;;;;;5072786;28;20262;-38
2022/10/21 04:26:19;;;;;;;9.77;5.83;;;;;;;;;;5059860;28;20206;-39
2022/10/21 04:28:47;;;;;;;11.50;6.00;;;;;;;;;;5058582;28;20209;-41
2022/10/21 04:31:18;;;;;;;6.20;4.80;;;;;;;;;;5061153;28;20325;-42
2022/10/21 04:33:46;;;;;;;6.37;4.57;;;;;;;;;;5069165;28;20206;-43
2022/10/21 04:36:14;;;;;;;6.30;4.90;;;;;;;;;;5059813;28;20198;-39
2022/10/21 04:38:44;;;;;;;9.73;5.20;;;;;;;;;;5062828;28;20396;-38
2022/10/21 04:41:11;;;;;;;8.10;5.33;;;;;;;;;;5064693;28;20267;-41
2022/10/21 04:43:39;;;;;;;10.03;5.23;;;;;;;;;;5062582;28;20267;-40
2022/10/21 04:46:13;;;;;;;9.07;5.50;;;;;;;;;;5063518;28;20202;-37
2022/10/21 04:48:42;;;;;;;9.70;4.80;;;;;;;;;;5064315;28;20214;-40
2022/10/21 04:51:09;;;;;;;9.10;6.60;;;;;;;;;;5057760;28;20252;-41
2022/10/21 04:53:38;;;;;;;14.47;5.83;;;;;;;;;;5072498;28;20240;-38
2022/10/21 04:56:06;;;;;;;7.33;5.47;;;;;;;;;;5065600;28;20303;-42
2022/10/21 04:58:34;;;;;;;6.30;5.10;;;;;;;;;;5053042;28;20284;-32
2022/10/21 05:01:01;;;;;;;10.53;5.27;;;;;;;;;;5065891;28;20256;-38
2022/10/21 05:03:28;;;;;;;6.83;5.33;;;;;;;;;;5055496;28;20201;-42
2022/10/21 05:05:57;;;;;;;6.20;4.90;;;;;;;;;;5053360;28;20264;-40
2022/10/21 05:08:24;;;;;;;7.67;4.77;;;;;;;;;;5057384;28;20206;-43
2022/10/21 05:10:58;;;;;;;10.47;5.43;;;;;;;;;;5061663;28;20221;-39
2022/10/21 05:13:25;;;;;;;7.60;4.97;;;;;;;;;;5068409;28;20217;-40
2022/10/21 05:15:53;;;;;;;7.87;5.53;;;;;;;;;;5054306;28;20213;-40
2022/10/21 05:21:04;;;;;;;7.10;5.27;;;;;;;;;;5177800;22;20231;-32
2022/10/21 05:23:31;;;;;;;9.27;5.00;;;;;;;;;;5090877;28;20271;-32
2022/10/21 05:25:58;;;;;;;7.93;5.00;;;;;;;;;;5085131;28;20221;-35
2022/10/21 05:28:25;;;;;;;7.17;5.20;;;;;;;;;;5084599;28;20288;-32
2022/10/21 05:30:53;;;;;;;6.47;5.43;;;;;;;;;;5091196;28;20268;-31
2022/10/21 05:33:20;;;;;;;8.73;5.40;;;;;;;;;;5091590;28;20205;-31
2022/10/21 05:35:55;;;;;;;9.10;5.57;;;;;;;;;;5089609;28;20208;-35
2022/10/21 05:38:24;;;;;;;7.60;5.40;;;;;;;;;;5094314;28;20211;-32
2022/10/21 05:40:51;;;;;;;6.50;4.57;;;;;;;;;;5105412;28;20512;-31
2022/10/21 05:43:18;;;;;;;8.07;5.57;;;;;;;;;;5078915;28;20205;-34
2022/10/21 05:45:46;;;;;;;8.70;4.73;;;;;;;;;;5086706;28;20231;-34
2022/10/21 05:48:13;;;;;;;14.53;4.93;;;;;;;;;;5082575;28;20198;-35
2022/10/21 05:50:40;;;;;;;9.73;5.33;;;;;;;;;;5076530;28;20230;-31
2022/10/21 05:53:07;;;;;;;6.77;5.10;;;;;;;;;;5086318;28;20207;-31
2022/10/21 05:55:35;;;;;;;9.13;5.17;;;;;;;;;;5089736;28;20205;-35
2022/10/21 05:58:02;;;;;;;9.57;4.70;;;;;;;;;;5092979;28;20208;-33
2022/10/21 06:00:30;;;;;;;11.50;5.80;;;;;;;;;;5087122;28;20221;-33
2022/10/21 06:02:57;;;;;;;9.67;5.13;;;;;;;;;;5089371;28;20229;-31
2022/10/21 06:05:24;;;;;;;7.83;5.53;;;;;;;;;;5085214;28;20204;-33
2022/10/21 06:07:51;;;;;;;8.17;5.20;;;;;;;;;;5092741;28;20211;-31
2022/10/21 06:10:18;;;;;;;6.43;5.30;;;;;;;;;;5080449;28;20221;-29
2022/10/21 06:12:47;;;;;;;7.50;4.87;;;;;;;;;;5077223;28;20211;-33
2022/10/21 06:15:14;;;;;;;8.10;5.00;;;;;;;;;;5091851;28;20206;-36
2022/10/21 06:17:41;;;;;;;15.00;4.70;;;;;;;;;;5097018;28;20216;-34
2022/10/21 06:20:08;;;;;;;7.47;4.63;;;;;;;;;;5093247;28;20236;-29
2022/10/21 06:22:37;;;;;;;13.33;5.57;;;;;;;;;;5092306;28;20299;-32
2022/10/21 06:25:04;;;;;;;11.07;6.23;;;;;;;;;;5092911;28;20236;-31
2022/10/21 06:27:31;;;;;;;8.80;5.30;;;;;;;;;;5082879;28;20208;-33
2022/10/21 06:29:59;;;;;;;8.67;5.27;;;;;;;;;;5087841;28;20256;-32
2022/10/21 06:32:27;;;;;;;11.23;5.30;;;;;;;;;;5083770;28;20193;-34
2022/10/21 06:34:54;;;;;;;8.57;5.37;;;;;;;;;;5085262;28;20213;-34
2022/10/21 06:37:21;;;;;;;6.10;5.07;;;;;;;;;;5092344;28;20201;-30
2022/10/21 06:39:48;;;;;;;6.40;5.10;;;;;;;;;;5096571;28;20220;-31
2022/10/21 06:42:16;;;;;;;15.67;6.33;;;;;;;;;;5092767;28;20298;-30
2022/10/21 06:44:43;;;;;;;5.83;4.57;;;;;;;;;;5087926;28;20214;-32
2022/10/21 06:47:15;;;;;;;8.00;6.00;;;;;;;;;;5089044;28;20204;-29
2022/10/21 06:49:43;;;;;;;10.27;4.87;;;;;;;;;;5078318;28;20215;-32
2022/10/21 06:52:10;;;;;;;8.40;5.73;;;;;;;;;;5090938;28;20211;-31
2022/10/21 06:54:38;;;;;;;7.20;5.70;;;;;;;;;;5087608;28;20202;-29
2022/10/21 06:57:05;;;;;;;10.03;5.60;;;;;;;;;;5071754;28;20217;-33
2022/10/21 06:59:32;;;;;;;17.17;6.07;;;;;;;;;;5085229;28;20200;-31
2022/10/21 07:02:01;;;;;;;8.53;7.43;;;;;;;;;;5091174;28;20221;-34
2022/10/21 07:07:34;;;;;;;14.33;7.03;;;;;;;;;;5079800;28;20198;-29
2022/10/21 07:10:01;;;;;;;14.87;7.63;;;;;;;;;;5082936;28;20311;-34
2022/10/21 07:12:30;;;;;;;11.30;6.47;;;;;;;;;;5081391;28;20205;-29
2022/10/21 07:14:58;;;;;;;13.23;5.90;;;;;;;;;;5091534;28;20204;-30
2022/10/21 07:17:25;;;;;;;9.30;6.60;;;;;;;;;;5097232;28;20204;-33
2022/10/21 07:19:53;;;;;;;8.83;6.33;;;;;;;;;;5076830;28;20327;-31
2022/10/21 07:22:20;;;;;;;12.80;6.87;;;;;;;;;;5083747;28;20222;-30
2022/10/21 07:25:02;;;;;;;9.43;5.77;;;;;;;;;;5090366;28;20199;-32
2022/10/21 07:27:29;;;;;;;11.90;5.80;;;;;;;;;;5103192;28;20274;-32
2022/10/21 07:29:56;;;;;;;8.70;5.33;;;;;;;;;;5095693;28;20258;-31
2022/10/21 07:32:24;;;;;;;9.83;6.37;;;;;;;;;;5095724;28;20207;-32
2022/10/21 07:34:51;;;;;;;9.77;6.17;;;;;;;;;;5088981;28;20213;-30
2022/10/21 07:37:18;;;;;;;8.00;6.13;;;;;;;;;;5098417;28;20664;-31
2022/10/21 07:39:46;;;;;;;17.77;6.37;;;;;;;;;;5111426;28;20222;-35
2022/10/21 07:42:14;;;;;;;11.13;5.77;;;;;;;;;;5102636;28;20246;-33
2022/10/21 07:44:41;;;;;;;17.43;6.67;;;;;;;;;;5097111;28;20296;-32
2022/10/21 07:47:09;;;;;;;8.77;6.27;;;;;;;;;;5095494;28;20205;-31
2022/10/21 07:49:36;;;;;;;7.33;5.83;;;;;;;;;;5086079;28;20205;-30
2022/10/21 07:52:03;;;;;;;10.63;5.80;;;;;;;;;;5093235;28;20200;-35
2022/10/21 07:54:30;;;;;;;9.57;6.30;;;;;;;;;;5095265;28;20202;-31
2022/10/21 07:56:57;;;;;;;9.80;6.37;;;;;;;;;;5092208;28;20210;-34
2022/10/21 07:59:26;;;;;;;9.87;6.60;;;;;;;;;;5088854;28;20287;-33
2022/10/21 08:01:53;;;;;;;9.40;6.17;;;;;;;;;;5094952;28;20223;-29
2022/10/21 08:04:21;;;;;;;7.70;5.63;;;;;;;;;;5090144;28;20213;-33
2022/10/21 08:06:49;;;;;;;8.80;5.77;;;;;;;;;;5094259;28;20227;-33
2022/10/21 08:09:16;;;;;;;11.37;6.40;;;;;;;;;;5094872;28;20203;-31
2022/10/21 08:11:43;;;;;;;9.03;6.60;;;;;;;;;;5086800;28;20226;-31
2022/10/21 08:14:11;;;;;;;13.27;8.20;;;;;;;;;;5092857;28;20204;-32
2022/10/21 08:16:39;;;;;;;12.23;7.60;;;;;;;;;;5100688;28;20284;-33
2022/10/21 08:19:07;;;;;;;6.73;5.50;;;;;;;;;;5088923;28;20201;-33
2022/10/21 08:21:34;;;;;;;9.33;5.33;;;;;;;;;;5084232;28;20217;-33
2022/10/21 08:24:02;;;;;;;14.93;6.80;;;;;;;;;;5101497;28;20438;-34
2022/10/21 08:26:30;;;;;;;11.57;6.47;;;;;;;;;;5094985;28;20207;-31
2022/10/21 08:28:57;;;;;;;8.40;5.97;;;;;;;;;;5081705;28;20233;-31
2022/10/21 08:31:24;;;;;;;10.60;5.80;;;;;;;;;;5094078;28;20218;-34
2022/10/21 08:33:52;;;;;;;14.27;6.63;;;;;;;;;;5091842;28;20198;-32
2022/10/21 08:36:21;;;;;;;13.47;6.40;;;;;;;;;;5098478;28;20201;-31
2022/10/21 08:38:48;;;;;;;9.37;5.70;;;;;;;;;;5094280;28;20234;-32
2022/10/21 08:41:25;;;;;;;13.47;6.13;;;;;;;;;;5094577;28;20235;-28
2022/10/21 08:43:53;;;;;;;14.20;6.43;;;;;;;;;;5092456;28;20284;-30
2022/10/21 08:46:22;;;;;;;10.17;5.80;;;;;;;;;;5085518;28;20291;-30
2022/10/21 08:48:51;;;;;;;11.37;6.60;;;;;;;;;;5089047;28;20209;-32
2022/10/21 08:51:23;;;;;;;9.57;5.00;;;;;;;;;;5094158;28;20308;-34
2022/10/21 08:53:51;;;;;;;12.60;5.83;;;;;;;;;;5094567;28;20219;-31
2022/10/21 08:56:18;;;;;;;11.50;6.03;;;;;;;;;;5113266;28;20204;-36
2022/10/21 08:58:47;;;;;;;11.30;5.67;;;;;;;;;;5090462;28;20201;-31
2022/10/21 09:01:18;;;;;;;8.40;5.60;;;;;;;;;;5095393;28;20230;-32
2022/10/21 09:03:53;;;;;;;13.80;6.50;;;;;;;;;;5094814;28;20221;-31
2022/10/21 09:06:28;;;;;;;11.83;5.40;;;;;;;;;;5086778;28;20201;-27
2022/10/21 09:09:13;;;;;;;11.63;5.07;;;;;;;;;;5094998;28;20188;-30
2022/10/21 09:11:48;;;;;;;9.00;5.10;;;;;;;;;;5094732;28;20220;-34
2022/10/21 09:14:26;;;;;;;8.50;4.70;;;;;;;;;;5094890;28;20225;-28
2022/10/21 09:16:59;;;;;;;10.23;5.57;;;;;;;;;;5094499;28;20200;-34
2022/10/21 09:19:33;;;;;;;8.43;4.23;;;;;;;;;;5091753;28;20294;-32
2022/10/21 09:22:09;;;;;;;9.03;4.93;;;;;;;;;;5092270;28;20210;-36
2022/10/21 09:24:41;;;;;;;6.57;4.00;;;;;;;;;;5086447;28;20201;-35
2022/10/21 09:27:10;;;;;;;4.77;3.50;;;;;;;;;;5087809;28;20247;-34
2022/10/21 09:29:38;;;;;;;7.57;4.13;;;;;;;;;;5090784;28;20207;-29
2022/10/21 09:32:14;;;;;;;8.17;4.23;;;;;;;;;;5092346;28;20201;-31
2022/10/21 09:34:45;;;;;;;10.37;5.27;;;;;;;;;;5085773;28;20295;-29
2022/10/21 09:37:17;;;;;;;11.67;5.70;;;;;;;;;;5091600;28;20304;-27
2022/10/21 09:39:47;;;;;;;11.63;5.27;;;;;;;;;;5093542;28;20226;-30
2022/10/21 09:42:25;;;;;;;12.43;5.67;;;;;;;;;;5083617;28;20284;-27
2022/10/21 09:44:53;;;;;;;14.13;6.13;;;;;;;;;;5089952;28;20210;-32
2022/10/21 09:47:21;;;;;;;10.93;5.93;;;;;;;;;;5097351;28;20212;-30
2022/10/21 09:49:50;;;;;;;11.53;6.00;;;;;;;;;;5084417;28;20230;-32
2022/10/21 09:52:20;;;;;;;13.13;6.90;;;;;;;;;;5091023;28;20228;-31
2022/10/21 09:54:51;;;;;;;16.60;6.83;;;;;;;;;;5090781;28;20205;-29
2022/10/21 09:57:36;;;;;;;12.50;6.97;;;;;;;;;;5090840;28;20295;-29
2022/10/21 10:00:05;;;;;;;14.70;6.77;;;;;;;;;;5083488;28;20309;-27
2022/10/21 10:02:34;;;;;;;10.50;6.20;;;;;;;;;;5089546;28;20230;-31
2022/10/21 10:05:04;;;;;;;11.20;7.20;;;;;;;;;;5082323;28;20225;-30
2022/10/21 10:07:36;;;;;;;12.50;6.80;;;;;;;;;;5090781;28;20203;-31
2022/10/21 10:10:25;;;;;;;13.40;6.67;;;;;;;;;;5087808;28;20217;-33
2022/10/21 10:12:56;;;;;;;11.73;7.10;;;;;;;;;;5075096;28;20201;-27
2022/10/21 10:15:25;;;;;;;13.37;5.87;;;;;;;;;;5083477;28;20209;-35
2022/10/21 10:17:57;;;;;;;10.63;5.83;;;;;;;;;;5089977;28;20217;-27
2022/10/21 10:20:24;;;;;;;10.03;5.80;;;;;;;;;;5084855;28;20319;-36
2022/10/21 10:23:08;;;;;;;12.03;5.93;;;;;;;;;;5092423;28;20224;-33
2022/10/21 10:25:38;;;;;;;9.87;5.40;;;;;;;;;;5093228;28;20208;-31
2022/10/21 10:28:16;;;;;;;9.60;5.33;;;;;;;;;;5085643;28;20228;-29
2022/10/21 10:30:47;;;;;;;10.53;5.20;;;;;;;;;;5090342;28;20234;-32
2022/10/21 10:33:15;;;;;;;10.83;5.73;;;;;;;;;;5088440;28;20195;-28
2022/10/21 10:35:47;;;;;;;10.30;5.60;;;;;;;;;;5084084;28;20235;-33
2022/10/21 10:38:19;;;;;;;6.97;4.83;;;;;;;;;;5092508;28;20201;-33
2022/10/21 10:40:49;;;;;;;9.87;5.37;;;;;;;;;;5092799;28;20224;-31
2022/10/21 10:43:23;;;;;;;7.63;4.83;;;;;;;;;;5076596;28;20223;-31
2022/10/21 10:45:50;;;;;;;11.10;5.40;;;;;;;;;;5093160;28;20205;-31
2022/10/21 10:48:21;;;;;;;13.93;5.43;;;;;;;;;;5086168;28;20288;-31
2022/10/21 10:50:49;;;;;;;11.70;5.27;;;;;;;;;;5089992;28;20224;-30
2022/10/21 10:53:22;;;;;;;11.40;5.37;;;;;;;;;;5092262;28;20196;-36
2022/10/21 10:55:54;;;;;;;13.03;5.30;;;;;;;;;;5085123;28;20283;-32
2022/10/21 10:58:22;;;;;;;8.07;5.27;;;;;;;;;;5085727;28;20204;-34
2022/10/21 11:00:50;;;;;;;9.23;5.03;;;;;;;;;;5095997;28;20232;-31
2022/10/21 11:03:22;;;;;;;11.00;5.17;;;;;;;;;;5091564;28;20217;-31
2022/10/21 11:05:51;;;;;;;8.00;4.80;;;;;;;;;;5093777;28;20204;-31
2022/10/21 11:08:22;;;;;;;8.83;3.93;;;;;;;;;;5104095;28;20211;-31
2022/10/21 11:10:52;;;;;;;11.47;5.07;;;;;;;;;;5093110;28;20228;-32
2022/10/21 11:13:20;;;;;;;8.83;5.03;;;;;;;;;;5086342;28;20203;-32
2022/10/21 11:15:55;;;;;;;7.60;5.00;;;;;;;;;;5090011;28;20288;-34
2022/10/21 11:18:25;;;;;;;7.87;4.73;;;;;;;;;;5079735;28;20207;-32
2022/10/21 11:21:06;;;;;;;15.80;5.20;;;;;;;;;;5326890;22;20232;-33
2022/10/21 11:26:27;;;;;;;13.17;5.63;;;;;;;;;;5103003;28;20200;-33
2022/10/21 11:28:59;;;;;;;9.27;4.80;;;;;;;;;;5103127;28;20207;-30
2022/10/21 11:31:44;;;;;;;8.03;4.23;;;;;;;;;;5103305;28;20297;-29
2022/10/21 11:34:15;;;;;;;8.27;4.80;;;;;;;;;;5090818;28;20193;-30
2022/10/21 11:36:48;;;;;;;6.30;3.90;;;;;;;;;;5093705;28;20235;-29
2022/10/21 11:39:29;;;;;;;7.30;5.10;;;;;;;;;;5095168;28;20220;-32
2022/10/21 11:42:01;;;;;;;12.03;4.63;;;;;;;;;;5083007;28;20286;-33
2022/10/21 11:44:32;;;;;;;8.60;4.57;;;;;;;;;;5095417;28;20229;-30
2022/10/21 11:47:05;;;;;;;7.40;3.63;;;;;;;;;;5095304;28;20231;-31
2022/10/21 11:49:41;;;;;;;14.20;4.73;;;;;;;;;;5088051;28;20205;-34
2022/10/21 11:52:14;;;;;;;10.93;4.87;;;;;;;;;;5096003;28;20208;-29
2022/10/21 11:54:48;;;;;;;9.03;4.30;;;;;;;;;;5094624;28;20239;-31
2022/10/21 11:57:29;;;;;;;7.90;3.93;;;;;;;;;;5090492;28;20296;-34
2022/10/21 12:00:05;;;;;;;6.13;3.73;;;;;;;;;;5091952;28;20323;-28
2022/10/21 12:02:42;;;;;;;9.83;3.73;;;;;;;;;;5330961;22;21118;-31
2022/10/21 12:05:15;;;;;;;8.10;3.47;;;;;;;;;;5048299;28;20230;-29
2022/10/21 12:07:59;;;;;;;8.27;3.17;;;;;;;;;;5046796;28;20304;-33
2022/10/21 12:10:30;;;;;;;6.07;3.20;;;;;;;;;;5050092;28;20225;-30
2022/10/21 12:13:02;;;;;;;4.73;2.70;;;;;;;;;;5055089;28;20233;-32
2022/10/21 12:15:32;;;;;;;4.30;3.20;;;;;;;;;;5059619;28;20201;-32
2022/10/21 12:18:02;;;;;;;5.50;3.10;;;;;;;;;;5056609;28;20212;-30
2022/10/21 12:20:33;;;;;;;5.10;2.70;;;;;;;;;;5051031;28;20225;-30
2022/10/21 12:23:01;;;;;;;4.73;2.80;;;;;;;;;;5054692;28;20213;-31
2022/10/21 12:25:41;;;;;;;2.87;2.40;;;;;;;;;;5058636;28;20256;-28
2022/10/21 12:28:15;;;;;;;4.57;1.80;;;;;;;;;;5062352;28;20236;-31
2022/10/21 12:30:46;;;;;;;3.03;2.37;;;;;;;;;;5052743;28;20222;-33
2022/10/21 12:33:19;;;;;;;4.50;1.97;;;;;;;;;;5055904;28;20208;-30
2022/10/21 12:35:52;;;;;;;4.40;1.57;;;;;;;;;;5053961;28;20229;-30
2022/10/21 12:38:24;;;;;;;1.50;1.40;;;;;;;;;;5065731;28;20255;-30
2022/10/21 12:41:10;;;;;;;2.83;1.60;;;;;;;;;;5057406;28;20253;-30
2022/10/21 12:43:39;;;;;;;4.07;1.30;;;;;;;;;;5055403;28;20303;-34
2022/10/21 12:46:11;;;;;;;2.87;1.17;;;;;;;;;;5071411;28;20284;-30
2022/10/21 12:48:47;;;;;;;3.93;1.53;;;;;;;;;;5064393;28;20198;-31
2022/10/21 12:51:20;;;;;;;3.87;1.10;;;;;;;;;;5052455;28;20234;-31
2022/10/21 12:53:48;;;;;;;1.67;0.90;;;;;;;;;;5049046;28;20294;-32
2022/10/21 12:56:26;;;;;;;2.97;0.97;;;;;;;;;;5071741;28;20202;-32
2022/10/21 12:58:58;;;;;;;1.17;0.97;;;;;;;;;;5064395;28;20217;-31
2022/10/21 13:01:44;;;;;;;1.83;1.10;;;;;;;;;;5045474;28;20233;-29
2022/10/21 13:04:44;;;;;;;1.60;1.13;;;;;;;;;;5045788;28;20222;-33
2022/10/21 13:07:32;;;;;;;1.67;1.30;;;;;;;;;;4952766;28;20202;-33
2022/10/21 13:10:29;;;;;;;2.37;1.20;;;;;;;;;;5064219;28;20232;-33
2022/10/21 13:13:17;;;;;;;2.40;0.80;;;;;;;;;;5052920;28;20264;-31
2022/10/21 13:15:54;;;;;;;2.30;1.07;;;;;;;;;;5175828;22;20199;-30
2022/10/21 13:18:39;;;;;;;0.87;0.87;;;;;;;;;;5068110;28;20201;-27
2022/10/21 13:23:46;;;;;;;0.93;0.83;;;;;;;;;;5226144;22;20327;-31
2022/10/21 13:26:21;;;;;;;1.70;0.90;;;;;;;;;;5096154;28;20259;-30
2022/10/21 13:29:05;;;;;;;1.07;0.97;;;;;;;;;;5089995;28;20226;-30
2022/10/21 13:31:37;;;;;;;2.17;1.00;;;;;;;;;;5085036;28;20249;-30
2022/10/21 13:34:28;;;;;;;1.27;1.07;;;;;;;;;;5074288;28;20241;-33
2022/10/21 13:37:04;;;;;;;4.23;1.13;;;;;;;;;;5070972;28;20277;-33
2022/10/21 13:39:35;;;;;;;3.97;1.20;;;;;;;;;;5061679;28;20211;-34
2022/10/21 13:42:12;;;;;;;2.23;1.07;;;;;;;;;;5068381;28;20206;-32
2022/10/21 13:44:45;;;;;;;3.90;1.10;;;;;;;;;;5072535;28;20315;-30
2022/10/21 13:47:29;;;;;;;1.30;0.90;;;;;;;;;;5073947;28;20481;-33
2022/10/21 13:49:57;;;;;;;1.67;0.80;;;;;;;;;;5068993;28;20247;-32
2022/10/21 13:52:30;;;;;;;4.40;1.00;;;;;;;;;;5064851;28;20210;-30
2022/10/21 13:55:00;;;;;;;0.80;0.80;;;;;;;;;;5053382;28;20285;-32
2022/10/21 13:57:31;;;;;;;1.10;0.80;;;;;;;;;;5060358;28;20202;-32
2022/10/21 14:00:01;;;;;;;2.93;0.80;;;;;;;;;;5073611;28;20225;-32
2022/10/21 14:02:31;;;;;;;1.67;0.83;;;;;;;;;;5071857;28;20288;-32
2022/10/21 14:05:04;;;;;;;1.87;0.73;;;;;;;;;;5071241;28;20232;-29
2022/10/21 14:07:34;;;;;;;1.70;0.90;;;;;;;;;;5083403;28;20223;-32
2022/10/21 14:10:07;;;;;;;1.23;0.80;;;;;;;;;;5068415;28;20225;-31
2022/10/21 14:12:40;;;;;;;2.77;0.60;;;;;;;;;;5062901;28;20208;-31
2022/10/21 14:15:13;;;;;;;3.70;0.70;;;;;;;;;;5064088;28;20206;-29
2022/10/21 14:17:50;;;;;;;1.87;0.60;;;;;;;;;;5076793;28;20207;-33
2022/10/21 14:20:22;;;;;;;1.50;0.70;;;;;;;;;;5068133;28;20286;-28
2022/10/21 14:22:54;;;;;;;1.33;0.70;;;;;;;;;;5080405;28;20240;-32
2022/10/21 14:25:26;;;;;;;0.90;0.90;;;;;;;;;;5073195;28;20324;-29
2022/10/21 14:27:58;;;;;;;0.90;0.70;;;;;;;;;;5052100;28;20293;-29
2022/10/21 14:30:28;;;;;;;0.80;0.80;;;;;;;;;;5073040;28;20228;-30
2022/10/21 14:32:59;;;;;;;0.70;0.70;;;;;;;;;;5085833;28;20229;-31
2022/10/21 14:35:28;;;;;;;0.70;0.70;;;;;;;;;;5071871;28;20209;-33
2022/10/21 14:37:57;;;;;;;2.17;0.87;;;;;;;;;;5071581;28;20274;-34
2022/10/21 14:40:30;;;;;;;1.30;0.70;;;;;;;;;;5074357;28;20308;-33
2022/10/21 14:43:01;;;;;;;1.57;0.50;;;;;;;;;;5083306;28;20211;-29
2022/10/21 14:45:30;;;;;;;0.40;0.40;;;;;;;;;;5071956;28;20220;-28
2022/10/21 14:48:12;;;;;;;2.20;0.73;;;;;;;;;;5078067;28;20216;-30
2022/10/21 14:50:50;;;;;;;1.53;0.70;;;;;;;;;;5074212;28;20243;-31
2022/10/21 14:53:19;;;;;;;1.33;0.70;;;;;;;;;;5092092;28;20219;-30
2022/10/21 14:56:04;;;;;;;2.10;0.80;;;;;;;;;;5088597;28;20208;-29
2022/10/21 14:58:40;;;;;;;1.33;0.77;;;;;;;;;;5057676;28;20288;-29
2022/10/21 15:01:15;;;;;;;1.07;0.80;;;;;;;;;;5087472;28;20242;-31
2022/10/21 15:03:47;;;;;;;0.87;0.70;;;;;;;;;;5061596;28;20229;-32
2022/10/21 15:06:15;;;;;;;0.77;0.57;;;;;;;;;;5083238;28;20288;-34
2022/10/21 15:08:44;;;;;;;0.63;0.63;;;;;;;;;;5080814;28;20220;-28
2022/10/21 15:11:33;;;;;;;0.60;0.60;;;;;;;;;;5058643;28;20229;-33
2022/10/21 15:14:06;;;;;;;0.60;0.60;;;;;;;;;;5071029;28;20221;-32
2022/10/21 15:16:46;;;;;;;1.23;0.80;;;;;;;;;;5087918;28;20204;-27
2022/10/21 15:19:17;;;;;;;1.13;0.67;;;;;;;;;;5057843;28;20213;-29
2022/10/21 15:21:48;;;;;;;0.83;0.60;;;;;;;;;;5057824;28;20229;-30
2022/10/21 15:24:19;;;;;;;1.43;0.80;;;;;;;;;;5072303;28;20225;-31
2022/10/21 15:26:50;;;;;;;0.73;0.70;;;;;;;;;;5084216;28;20220;-32